createdAt,value
2022-11-09T00:00:53.729Z,11.46
2022-11-09T00:03:20.601Z,11.60
2022-11-09T00:05:58.324Z,11.56
2022-11-09T00:08:25.069Z,11.49
2022-11-09T00:10:51.654Z,11.33
2022-11-09T00:13:18.780Z,11.30
2022-11-09T00:15:45.683Z,11.42
2022-11-09T00:18:12.242Z,11.45
2022-11-09T00:20:43.249Z,11.60
2022-11-09T00:23:13.763Z,11.50
2022-11-09T00:25:42.825Z,11.78
2022-11-09T00:28:09.449Z,11.80
2022-11-09T00:30:36.070Z,11.82
2022-11-09T00:33:02.714Z,11.77
2022-11-09T00:35:29.264Z,11.57
2022-11-09T00:37:59.984Z,11.60
2022-11-09T00:40:26.731Z,11.68
2022-11-09T00:42:53.502Z,11.58
2022-11-09T00:45:20.366Z,11.47
2022-11-09T00:47:47.078Z,11.44
2022-11-09T00:50:16.337Z,11.63
2022-11-09T00:52:43.391Z,11.62
2022-11-09T00:55:10.075Z,11.67
2022-11-09T00:57:36.717Z,11.64
2022-11-09T01:00:06.701Z,11.67
2022-11-09T01:02:36.366Z,11.88
2022-11-09T01:05:05.444Z,11.88
2022-11-09T01:07:34.134Z,11.94
2022-11-09T01:10:05.126Z,12.09
2022-11-09T01:12:33.771Z,12.19
2022-11-09T01:15:05.006Z,12.29
2022-11-09T01:17:33.810Z,12.12
2022-11-09T01:20:04.966Z,12.09
2022-11-09T01:22:34.457Z,12.06
2022-11-09T01:25:03.380Z,11.92
2022-11-09T01:27:30.199Z,11.99
2022-11-09T01:29:57.058Z,12.17
2022-11-09T01:32:24.209Z,12.38
2022-11-09T01:34:51.113Z,12.41
2022-11-09T01:37:17.756Z,12.52
2022-11-09T01:39:47.309Z,12.45
2022-11-09T01:42:25.474Z,12.48
2022-11-09T01:45:40.548Z,12.41
2022-11-09T01:48:21.157Z,12.41
2022-11-09T01:51:19.084Z,12.56
2022-11-09T01:54:06.969Z,12.60
2022-11-09T01:56:44.109Z,12.69
2022-11-09T01:59:32.142Z,12.59
2022-11-09T02:02:05.581Z,12.45
2022-11-09T02:04:51.892Z,12.39
2022-11-09T02:10:59.482Z,12.57
2022-11-09T02:13:29.450Z,12.30
2022-11-09T02:16:07.923Z,12.32
2022-11-09T02:18:34.678Z,12.33
2022-11-09T02:21:02.514Z,12.39
2022-11-09T02:23:29.357Z,12.27
2022-11-09T02:26:00.366Z,12.16
2022-11-09T02:28:28.291Z,12.27
2022-11-09T02:30:57.030Z,12.24
2022-11-09T02:33:26.596Z,12.28
2022-11-09T02:35:54.396Z,12.19
2022-11-09T02:38:24.179Z,12.12
2022-11-09T02:40:54.835Z,11.98
2022-11-09T02:43:23.339Z,11.89
2022-11-09T02:45:50.671Z,11.82
2022-11-09T02:48:17.501Z,11.72
2022-11-09T02:50:44.376Z,11.63
2022-11-09T02:53:11.096Z,11.56
2022-11-09T02:55:41.722Z,11.55
2022-11-09T02:58:08.690Z,11.51
2022-11-09T03:00:36.753Z,11.53
2022-11-09T03:03:04.161Z,11.60
2022-11-09T03:05:31.182Z,11.54
2022-11-09T03:08:02.539Z,11.60
2022-11-09T03:10:32.499Z,11.71
2022-11-09T03:12:59.398Z,11.95
2022-11-09T03:15:26.044Z,11.87
2022-11-09T03:17:52.820Z,11.86
2022-11-09T03:20:20.810Z,11.82
2022-11-09T03:22:48.440Z,11.78
2022-11-09T03:25:15.275Z,11.80
2022-11-09T03:27:41.952Z,11.66
2022-11-09T03:30:10.249Z,11.67
2022-11-09T03:32:37.536Z,11.78
2022-11-09T03:35:07.921Z,11.64
2022-11-09T03:37:35.187Z,11.72
2022-11-09T03:40:01.985Z,11.63
2022-11-09T03:42:29.223Z,11.68
2022-11-09T03:44:56.148Z,11.65
2022-11-09T03:47:23.221Z,11.63
2022-11-09T03:49:49.870Z,11.75
2022-11-09T03:52:16.545Z,11.68
2022-11-09T03:54:43.275Z,11.57
2022-11-09T03:57:10.179Z,11.52
2022-11-09T03:59:36.794Z,11.45
2022-11-09T04:02:03.979Z,11.54
2022-11-09T04:04:30.790Z,11.61
2022-11-09T04:06:57.567Z,11.76
2022-11-09T04:09:24.285Z,11.63
2022-11-09T04:11:51.039Z,11.62
2022-11-09T04:14:17.633Z,11.82
2022-11-09T04:16:44.248Z,12.00
2022-11-09T04:19:11.540Z,12.04
2022-11-09T04:21:38.284Z,11.91
2022-11-09T04:24:05.338Z,11.96
2022-11-09T04:26:33.060Z,12.03
2022-11-09T04:29:00.036Z,11.89
2022-11-09T04:31:28.316Z,12.00
2022-11-09T04:33:55.632Z,12.00
2022-11-09T04:36:22.732Z,12.10
2022-11-09T04:38:49.920Z,11.93
2022-11-09T04:41:16.714Z,12.03
2022-11-09T04:43:43.344Z,12.15
2022-11-09T04:46:10.628Z,11.88
2022-11-09T04:48:37.413Z,11.65
2022-11-09T04:51:06.580Z,11.54
2022-11-09T04:53:34.859Z,11.41
2022-11-09T04:56:01.650Z,11.43
2022-11-09T04:58:29.176Z,11.65
2022-11-09T05:01:05.823Z,11.77
2022-11-09T05:03:32.759Z,12.01
2022-11-09T05:05:59.438Z,12.25
2022-11-09T05:08:26.373Z,12.19
2022-11-09T05:10:57.847Z,12.29
2022-11-09T05:13:25.299Z,12.46
2022-11-09T05:15:54.449Z,12.50
2022-11-09T05:18:21.165Z,12.57
2022-11-09T05:20:48.323Z,12.47
2022-11-09T05:23:38.959Z,12.56
2022-11-09T05:26:05.784Z,12.61
2022-11-09T05:28:32.387Z,12.75
2022-11-09T05:30:59.008Z,12.87
2022-11-09T05:33:25.687Z,12.88
2022-11-09T05:35:56.944Z,12.84
2022-11-09T05:38:24.683Z,12.80
2022-11-09T05:40:52.153Z,12.76
2022-11-09T05:43:23.445Z,12.67
2022-11-09T05:45:50.243Z,12.72
2022-11-09T05:48:18.117Z,12.58
2022-11-09T05:50:45.077Z,12.71
2022-11-09T05:53:21.323Z,12.82
2022-11-09T05:55:48.243Z,12.65
2022-11-09T05:58:15.009Z,12.80
2022-11-09T06:00:41.718Z,12.84
2022-11-09T06:03:09.918Z,12.72
2022-11-09T06:05:38.161Z,12.77
2022-11-09T06:08:05.547Z,12.90
2022-11-09T06:10:32.519Z,12.71
2022-11-09T06:12:59.414Z,12.70
2022-11-09T06:15:26.267Z,12.79
2022-11-09T06:17:57.457Z,12.74
2022-11-09T06:20:24.713Z,12.87
2022-11-09T06:23:04.180Z,12.79
2022-11-09T06:25:33.079Z,12.93
2022-11-09T06:28:00.251Z,12.93
2022-11-09T06:30:26.939Z,12.88
2022-11-09T06:33:03.180Z,12.94
2022-11-09T06:35:30.043Z,12.89
2022-11-09T06:38:00.328Z,12.81
2022-11-09T06:40:28.069Z,12.83
2022-11-09T06:43:01.141Z,12.96
2022-11-09T06:45:29.319Z,12.93
2022-11-09T06:48:00.726Z,12.71
2022-11-09T06:50:28.619Z,12.59
2022-11-09T06:53:10.515Z,12.64
2022-11-09T06:55:37.931Z,12.57
2022-11-09T06:58:15.679Z,12.87
2022-11-09T07:00:43.569Z,12.87
2022-11-09T07:06:25.843Z,12.75
2022-11-09T07:09:36.676Z,12.77
2022-11-09T07:16:52.019Z,12.98
2022-11-09T07:22:03.990Z,12.89
2022-11-09T07:24:46.883Z,12.96
2022-11-09T07:35:08.766Z,12.73
2022-11-09T07:38:02.284Z,12.60
2022-11-09T07:48:03.903Z,12.51
2022-11-09T07:50:32.051Z,12.40
2022-11-09T07:57:03.528Z,12.61
2022-11-09T07:59:31.665Z,12.75
2022-11-09T08:02:15.250Z,12.81
2022-11-09T08:04:42.162Z,12.77
2022-11-09T08:07:09.243Z,12.82
2022-11-09T08:09:47.049Z,13.02
2022-11-09T08:12:13.699Z,13.08
2022-11-09T08:14:40.422Z,12.94
2022-11-09T08:17:08.543Z,12.87
2022-11-09T08:19:36.690Z,12.85
2022-11-09T08:22:05.143Z,12.77
2022-11-09T08:24:32.009Z,12.75
2022-11-09T08:26:58.731Z,13.10
2022-11-09T08:29:26.839Z,12.86
2022-11-09T08:31:54.507Z,12.96
2022-11-09T08:34:21.394Z,12.80
2022-11-09T08:36:48.070Z,12.73
2022-11-09T08:39:14.882Z,12.77
2022-11-09T08:41:41.663Z,12.75
2022-11-09T08:44:08.379Z,12.67
2022-11-09T08:46:41.230Z,12.63
2022-11-09T08:49:08.298Z,12.52
2022-11-09T08:51:34.829Z,12.64
2022-11-09T08:54:01.647Z,12.74
2022-11-09T08:56:28.199Z,12.88
2022-11-09T08:58:57.919Z,13.06
2022-11-09T09:01:25.467Z,13.21
2022-11-09T09:03:52.182Z,13.41
2022-11-09T09:06:18.774Z,13.34
2022-11-09T09:08:45.362Z,13.25
2022-11-09T09:11:16.538Z,13.42
2022-11-09T09:13:43.844Z,13.29
2022-11-09T09:16:15.623Z,13.32
2022-11-09T09:18:44.667Z,13.45
2022-11-09T09:21:11.420Z,13.40
2022-11-09T09:23:38.174Z,13.08
2022-11-09T09:26:05.052Z,13.10
2022-11-09T09:28:32.173Z,12.88
2022-11-09T09:31:01.966Z,12.94
2022-11-09T09:33:29.313Z,12.90
2022-11-09T09:36:02.482Z,13.04
2022-11-09T09:42:26.631Z,13.07
2022-11-09T09:45:35.842Z,13.18
2022-11-09T09:48:50.270Z,13.15
2022-11-09T09:52:18.783Z,13.17
2022-11-09T09:55:50.473Z,13.52
2022-11-09T09:58:29.000Z,13.41
2022-11-09T10:01:12.403Z,13.39
2022-11-09T10:03:41.605Z,13.46
2022-11-09T10:06:32.766Z,13.40
2022-11-09T10:09:10.627Z,13.22
2022-11-09T10:11:58.482Z,13.25
2022-11-09T10:15:18.932Z,13.32
2022-11-09T10:18:25.538Z,13.16
2022-11-09T10:21:38.573Z,13.14
2022-11-09T10:28:54.666Z,13.38
2022-11-09T10:36:26.367Z,13.36
2022-11-09T10:50:33.589Z,13.51
2022-11-09T10:53:30.733Z,13.46
2022-11-09T10:57:00.652Z,13.65
2022-11-09T11:04:25.588Z,13.96
2022-11-09T11:07:34.391Z,13.94
2022-11-09T11:10:21.296Z,13.93
2022-11-09T11:13:06.484Z,14.19
2022-11-09T11:15:51.764Z,14.12
2022-11-09T11:18:43.333Z,13.99
2022-11-09T11:21:29.073Z,14.39
2022-11-09T11:24:28.274Z,14.49
2022-11-09T11:27:18.105Z,14.55
2022-11-09T11:30:13.324Z,14.24
2022-11-09T11:32:58.671Z,14.41
2022-11-09T11:36:14.608Z,14.28
2022-11-09T11:39:22.950Z,14.18
2022-11-09T11:42:29.451Z,14.22
2022-11-09T11:45:39.678Z,14.26
2022-11-09T11:48:38.987Z,14.20
2022-11-09T11:51:38.651Z,14.51
2022-11-09T11:54:32.914Z,14.65
2022-11-09T11:57:45.329Z,14.64
2022-11-09T12:00:31.611Z,14.51
2022-11-09T12:03:41.695Z,14.64
2022-11-09T12:06:56.493Z,14.34
2022-11-09T12:09:50.724Z,14.35
2022-11-09T12:12:45.235Z,14.07
2022-11-09T12:15:42.089Z,14.02
2022-11-09T12:18:33.255Z,14.00
2022-11-09T12:21:34.941Z,13.97
2022-11-09T12:24:39.471Z,13.77
2022-11-09T12:28:00.010Z,13.79
2022-11-09T12:31:10.776Z,13.84
2022-11-09T12:34:03.439Z,13.76
2022-11-09T12:37:02.936Z,13.64
2022-11-09T12:39:55.368Z,13.50
2022-11-09T12:42:47.663Z,13.54
2022-11-09T12:45:38.753Z,13.59
2022-11-09T12:48:31.012Z,13.80
2022-11-09T12:51:17.033Z,13.61
2022-11-09T12:54:10.009Z,14.08
2022-11-09T12:57:10.485Z,14.00
2022-11-09T12:59:57.549Z,13.77
2022-11-09T13:02:54.813Z,14.11
2022-11-09T13:05:40.384Z,14.28
2022-11-09T13:08:30.125Z,14.22
2022-11-09T13:11:27.716Z,13.98
2022-11-09T13:14:39.823Z,13.89
2022-11-09T13:17:24.851Z,13.97
2022-11-09T13:20:54.614Z,13.95
2022-11-09T13:24:00.962Z,13.80
2022-11-09T13:26:47.374Z,13.83
2022-11-09T13:29:41.949Z,13.76
2022-11-09T13:32:28.078Z,13.54
2022-11-09T13:35:41.279Z,13.67
2022-11-09T13:38:33.125Z,13.83
2022-11-09T13:41:31.855Z,13.79
2022-11-09T13:44:23.817Z,13.66
2022-11-09T13:47:21.962Z,13.73
2022-11-09T13:50:18.484Z,13.65
2022-11-09T13:53:04.317Z,13.76
2022-11-09T13:55:50.249Z,13.67
2022-11-09T13:58:38.094Z,13.65
2022-11-09T14:01:27.974Z,13.74
2022-11-09T14:04:40.333Z,13.53
2022-11-09T14:07:28.162Z,13.53
2022-11-09T14:10:18.864Z,13.62
2022-11-09T14:13:15.733Z,13.70
2022-11-09T14:16:01.017Z,13.76
2022-11-09T14:18:46.565Z,13.76
2022-11-09T14:21:47.036Z,13.57
2022-11-09T14:24:33.684Z,13.65
2022-11-09T14:27:21.853Z,13.74
2022-11-09T14:30:20.157Z,13.71
2022-11-09T14:33:23.297Z,13.56
2022-11-09T14:36:11.688Z,13.43
2022-11-09T14:38:58.517Z,13.49
2022-11-09T14:41:46.377Z,13.41
2022-11-09T14:44:35.984Z,13.38
2022-11-09T14:47:33.779Z,13.19
2022-11-09T14:50:26.878Z,13.09
2022-11-09T14:53:24.592Z,13.20
2022-11-09T14:56:18.322Z,13.02
2022-11-09T14:59:11.160Z,12.94
2022-11-09T15:02:08.449Z,12.93
2022-11-09T15:05:02.318Z,12.93
2022-11-09T15:07:50.573Z,12.81
2022-11-09T15:10:39.187Z,12.63
2022-11-09T15:13:37.790Z,12.76
2022-11-09T15:16:27.719Z,12.52
2022-11-09T15:19:33.699Z,12.51
2022-11-09T15:22:43.011Z,12.34
2022-11-09T15:25:34.439Z,12.42
2022-11-09T15:28:30.993Z,12.17
2022-11-09T15:31:18.903Z,12.20
2022-11-09T15:34:22.133Z,12.17
2022-11-09T15:37:46.130Z,12.24
2022-11-09T15:40:31.234Z,12.31
2022-11-09T15:43:16.522Z,12.25
2022-11-09T15:46:02.447Z,12.12
2022-11-09T15:48:49.077Z,12.06
2022-11-09T15:51:38.530Z,12.32
2022-11-09T15:54:24.485Z,12.42
2022-11-09T15:57:14.986Z,12.33
2022-11-09T16:00:02.427Z,12.35
2022-11-09T16:02:48.120Z,12.43
2022-11-09T16:05:33.192Z,12.46
2022-11-09T16:08:18.904Z,12.32
2022-11-09T16:11:06.011Z,12.50
2022-11-09T16:13:51.422Z,12.56
2022-11-09T16:16:36.623Z,12.53
2022-11-09T16:19:22.177Z,12.35
2022-11-09T16:22:08.560Z,12.27
2022-11-09T16:24:53.820Z,12.47
2022-11-09T16:27:55.028Z,12.50
2022-11-09T16:30:45.477Z,12.23
2022-11-09T16:33:31.941Z,12.07
2022-11-09T16:36:19.995Z,11.99
2022-11-09T16:39:09.212Z,12.10
2022-11-09T16:41:54.252Z,12.28
2022-11-09T16:44:41.090Z,12.32
2022-11-09T16:47:27.553Z,12.41
2022-11-09T16:50:13.379Z,12.09
2022-11-09T16:52:58.831Z,12.15
2022-11-09T16:55:44.181Z,12.22
2022-11-09T16:58:35.706Z,12.04
2022-11-09T17:01:23.715Z,11.84
2022-11-09T17:04:09.110Z,11.86
2022-11-09T17:06:54.387Z,11.72
2022-11-09T17:09:39.692Z,11.59
2022-11-09T17:12:25.178Z,11.73
2022-11-09T17:15:10.855Z,11.73
2022-11-09T17:17:56.062Z,11.77
2022-11-09T17:20:46.411Z,11.65
2022-11-09T17:23:32.163Z,11.73
2022-11-09T17:26:18.570Z,11.49
2022-11-09T17:29:04.832Z,11.40
2022-11-09T17:31:49.844Z,11.49
2022-11-09T17:34:35.365Z,11.32
2022-11-09T17:37:20.710Z,11.23
2022-11-09T17:40:06.912Z,11.27
2022-11-09T17:42:52.100Z,11.34
2022-11-09T17:45:37.571Z,11.06
2022-11-09T17:48:23.458Z,11.08
2022-11-09T17:51:09.503Z,11.02
2022-11-09T17:53:57.942Z,10.98
2022-11-09T17:56:43.604Z,10.87
2022-11-09T17:59:28.895Z,11.01
2022-11-09T18:02:15.489Z,10.79
2022-11-09T18:05:01.264Z,10.82
2022-11-09T18:07:46.441Z,10.61
2022-11-09T18:10:31.768Z,10.75
2022-11-09T18:13:17.931Z,10.70
2022-11-09T18:16:07.763Z,10.70
2022-11-09T18:18:59.540Z,10.76
2022-11-09T18:21:47.457Z,10.91
2022-11-09T18:24:33.094Z,10.71
2022-11-09T18:27:18.044Z,10.72
2022-11-09T18:30:08.612Z,10.57
2022-11-09T18:32:54.154Z,10.64
2022-11-09T18:35:39.394Z,10.72
2022-11-09T18:38:29.104Z,10.70
2022-11-09T18:41:20.478Z,10.76
2022-11-09T18:44:05.945Z,10.64
2022-11-09T18:46:51.459Z,10.53
2022-11-09T18:49:36.666Z,10.69
2022-11-09T18:52:22.131Z,10.63
2022-11-09T18:55:08.018Z,10.56
2022-11-09T18:57:53.180Z,10.49
2022-11-09T19:00:38.922Z,10.52
2022-11-09T19:03:23.944Z,10.48
2022-11-09T19:06:13.179Z,10.47
2022-11-09T19:09:17.028Z,10.52
2022-11-09T19:12:06.588Z,10.66
2022-11-09T19:14:52.290Z,10.62
2022-11-09T19:17:39.108Z,10.65
2022-11-09T19:20:24.243Z,10.84
2022-11-09T19:23:09.673Z,10.80
2022-11-09T19:25:55.239Z,10.70
2022-11-09T19:28:40.719Z,10.74
2022-11-09T19:31:26.703Z,10.77
2022-11-09T19:34:15.263Z,10.91
2022-11-09T19:37:02.742Z,10.71
2022-11-09T19:39:50.507Z,10.97
2022-11-09T19:42:39.260Z,10.74
2022-11-09T19:45:24.220Z,10.68
2022-11-09T19:48:09.747Z,10.75
2022-11-09T19:50:55.255Z,10.88
2022-11-09T19:53:42.670Z,10.96
2022-11-09T19:56:30.761Z,10.90
2022-11-09T19:59:17.000Z,10.72
2022-11-09T20:02:02.504Z,10.81
2022-11-09T20:04:49.473Z,10.88
2022-11-09T20:07:34.973Z,10.86
2022-11-09T20:10:21.447Z,10.75
2022-11-09T20:13:07.128Z,10.83
2022-11-09T20:15:52.412Z,10.89
2022-11-09T20:18:38.921Z,10.92
2022-11-09T20:21:24.426Z,10.82
2022-11-09T20:24:12.306Z,10.84
2022-11-09T20:26:57.653Z,10.84
2022-11-09T20:29:43.058Z,10.87
2022-11-09T20:32:28.495Z,10.88
2022-11-09T20:35:14.000Z,10.87
2022-11-09T20:37:59.212Z,10.87
2022-11-09T20:40:44.517Z,10.85
2022-11-09T20:43:29.947Z,10.88
2022-11-09T20:46:20.994Z,10.80
2022-11-09T20:49:06.572Z,10.79
2022-11-09T20:51:52.014Z,10.69
2022-11-09T20:54:37.586Z,10.64
2022-11-09T20:57:22.950Z,10.66
2022-11-09T21:00:09.134Z,10.53
2022-11-09T21:02:54.307Z,10.48
2022-11-09T21:05:39.726Z,10.29
2022-11-09T21:08:25.376Z,10.35
2022-11-09T21:11:13.045Z,10.37
2022-11-09T21:13:58.412Z,10.40
2022-11-09T21:16:43.763Z,10.40
2022-11-09T21:19:29.031Z,10.49
2022-11-09T21:22:14.509Z,10.59
2022-11-09T21:25:18.367Z,10.62
2022-11-09T21:28:22.458Z,10.69
2022-11-09T21:31:20.829Z,10.56
2022-11-09T21:34:06.432Z,10.46
2022-11-09T21:36:51.774Z,10.45
2022-11-09T21:39:37.082Z,10.56
2022-11-09T21:42:22.548Z,10.57
2022-11-09T21:45:08.458Z,10.55
2022-11-09T21:47:54.546Z,10.51
2022-11-09T21:50:39.557Z,10.56
2022-11-09T21:53:24.977Z,10.43
2022-11-09T21:56:10.440Z,10.52
2022-11-09T21:58:55.985Z,10.39
2022-11-09T22:01:41.443Z,10.46
2022-11-09T22:04:26.668Z,10.45
2022-11-09T22:07:12.151Z,10.41
2022-11-09T22:10:09.382Z,10.51
2022-11-09T22:13:13.739Z,10.37
2022-11-09T22:16:09.360Z,10.46
2022-11-09T22:19:12.970Z,10.43
2022-11-09T22:21:57.978Z,10.32
2022-11-09T22:24:43.312Z,10.25
2022-11-09T22:27:31.167Z,10.26
2022-11-09T22:30:16.852Z,10.20
2022-11-09T22:33:01.892Z,10.24
2022-11-09T22:35:54.209Z,10.20
2022-11-09T22:38:39.600Z,10.26
2022-11-09T22:41:24.830Z,10.22
2022-11-09T22:44:10.340Z,10.26
2022-11-09T22:46:55.470Z,10.24
2022-11-09T22:49:40.751Z,10.17
2022-11-09T22:52:26.107Z,10.17
2022-11-09T22:55:11.584Z,10.20
2022-11-09T22:57:57.490Z,10.25
2022-11-09T23:00:45.409Z,10.20
2022-11-09T23:03:31.227Z,10.16
2022-11-09T23:06:21.221Z,10.18
2022-11-09T23:09:06.322Z,10.10
2022-11-09T23:11:51.773Z,10.07
2022-11-09T23:14:55.916Z,10.13
2022-11-09T23:17:59.778Z,10.14
2022-11-09T23:20:45.043Z,10.19
2022-11-09T23:23:30.612Z,10.07
2022-11-09T23:26:16.013Z,10.02
2022-11-09T23:29:01.455Z,10.06
2022-11-09T23:31:46.764Z,10.20
2022-11-09T23:34:32.124Z,10.12
2022-11-09T23:37:17.527Z,10.10
2022-11-09T23:40:03.449Z,10.12
2022-11-09T23:42:49.215Z,9.99
2022-11-09T23:45:35.896Z,10.10
2022-11-09T23:48:20.914Z,10.05
2022-11-09T23:51:06.720Z,9.99
2022-11-09T23:53:52.223Z,10.00
2022-11-09T23:56:37.352Z,9.94
2022-11-09T23:59:23.174Z,9.95
